Becida, Minnesota
Current Conditions -  °F | °C
As of 12:54 AM on Monday 22 Dec 2014 (Local Time) from KBJI Reporting Station
Haze Haze  
Wind Chill: 26°   Ceiling: 400
Heat Index: 33°   Visibility: 3mi
Dew Point: 32°   Wind: 8mph
Humidity: 99%   Direction: 130°SE
Pressure: 29.6"   Gusts: NA
Location:  47.545°N, 95.1206°W
Report Text: KBJI 220654Z AUTO 13007KT 3SM BR OVC004 00/00 A2960 RMK AO2 T00040002
Loading
Personal Weather Stations






























Interactive Weather Map New forecast layout! Learn more

10-Day Weather Forecast

Advertisements
Track Severe Weather on mobile